createdAt,value
2023-04-18T00:00:58.055Z,3.20
2023-04-18T00:03:30.309Z,2.90
2023-04-18T00:06:02.723Z,4.00
2023-04-18T00:08:34.716Z,3.80
2023-04-18T00:11:06.288Z,3.80
2023-04-18T00:13:38.619Z,2.40
2023-04-18T00:16:13.503Z,4.10
2023-04-18T00:18:45.093Z,3.60
2023-04-18T00:21:16.977Z,3.30
2023-04-18T00:23:48.400Z,5.80
2023-04-18T00:26:19.928Z,4.20
2023-04-18T00:28:52.036Z,4.30
2023-04-18T00:31:23.406Z,3.30
2023-04-18T00:33:55.638Z,3.30
2023-04-18T00:36:28.445Z,4.20
2023-04-18T00:39:00.156Z,3.30
2023-04-18T00:41:32.814Z,3.60
2023-04-18T00:44:04.776Z,4.20
2023-04-18T00:46:36.123Z,3.50
2023-04-18T00:49:07.747Z,3.00
2023-04-18T00:51:40.118Z,3.60
2023-04-18T00:54:13.898Z,3.30
2023-04-18T00:56:46.113Z,2.80
2023-04-18T00:59:17.780Z,3.20
2023-04-18T01:01:50.236Z,2.80
2023-04-18T01:04:21.763Z,3.20
2023-04-18T01:06:53.134Z,3.60
2023-04-18T01:09:27.342Z,3.60
2023-04-18T01:11:58.805Z,2.80
2023-04-18T01:14:31.034Z,2.60
2023-04-18T01:17:03.031Z,2.60
2023-04-18T01:19:38.075Z,2.80
2023-04-18T01:22:11.964Z,2.70
2023-04-18T01:24:46.157Z,2.00
2023-04-18T01:27:17.580Z,2.30
2023-04-18T01:29:49.267Z,3.20
2023-04-18T01:32:20.847Z,1.60
2023-04-18T01:34:52.504Z,2.40
2023-04-18T01:37:23.913Z,1.70
2023-04-18T01:39:55.399Z,1.90
2023-04-18T01:42:27.057Z,2.10
2023-04-18T01:44:58.880Z,2.00
2023-04-18T01:47:30.062Z,2.40
2023-04-18T01:50:01.830Z,2.60
2023-04-18T01:52:33.267Z,2.00
2023-04-18T01:55:06.247Z,1.90
2023-04-18T01:57:37.871Z,2.90
2023-04-18T02:00:11.399Z,2.70
2023-04-18T02:02:50.398Z,1.40
2023-04-18T02:05:22.701Z,2.60
2023-04-18T02:07:54.392Z,2.40
2023-04-18T02:10:26.407Z,3.40
2023-04-18T02:12:57.743Z,2.40
2023-04-18T02:15:29.852Z,1.90
2023-04-18T02:18:01.591Z,2.70
2023-04-18T02:20:34.008Z,2.10
2023-04-18T02:23:06.798Z,2.70
2023-04-18T02:25:37.903Z,1.90
2023-04-18T02:28:09.634Z,2.90
2023-04-18T02:30:41.253Z,3.00
2023-04-18T02:33:13.064Z,2.50
2023-04-18T02:35:44.535Z,2.30
2023-04-18T02:38:16.095Z,1.50
2023-04-18T02:40:47.664Z,2.70
2023-04-18T02:43:18.896Z,2.20
2023-04-18T02:45:50.595Z,2.20
2023-04-18T02:48:22.025Z,1.90
2023-04-18T02:50:53.678Z,2.50
2023-04-18T02:53:25.259Z,2.80
2023-04-18T02:55:58.712Z,2.10
2023-04-18T02:58:37.111Z,2.80
2023-04-18T03:01:29.018Z,2.40
2023-04-18T03:04:12.949Z,2.50
2023-04-18T03:06:49.238Z,2.50
2023-04-18T03:09:21.400Z,1.90
2023-04-18T03:11:55.428Z,4.20
2023-04-18T03:14:29.930Z,2.30
2023-04-18T03:17:01.818Z,2.70
2023-04-18T03:19:37.684Z,2.50
2023-04-18T03:22:12.760Z,2.30
2023-04-18T03:24:49.168Z,2.00
2023-04-18T03:27:22.477Z,1.90
2023-04-18T03:29:54.490Z,1.70
2023-04-18T03:32:26.512Z,2.00
2023-04-18T03:34:58.086Z,2.40
2023-04-18T03:37:29.524Z,2.20
2023-04-18T03:40:01.102Z,1.80
2023-04-18T03:42:34.445Z,1.90
2023-04-18T03:45:06.900Z,2.00
2023-04-18T03:47:39.400Z,2.20
2023-04-18T03:50:12.288Z,2.20
2023-04-18T03:52:43.942Z,2.90
2023-04-18T03:55:16.629Z,3.10
2023-04-18T03:57:48.184Z,3.30
2023-04-18T04:00:25.910Z,2.80
2023-04-18T04:03:03.702Z,2.00
2023-04-18T04:05:35.869Z,2.20
2023-04-18T04:08:07.689Z,2.90
2023-04-18T04:10:39.576Z,2.70
2023-04-18T04:13:11.539Z,2.00
2023-04-18T04:15:43.461Z,2.60
2023-04-18T04:18:15.205Z,2.40
2023-04-18T04:20:49.146Z,2.50
2023-04-18T04:23:31.203Z,4.70
2023-04-18T04:26:04.253Z,5.20
2023-04-18T04:28:58.648Z,3.40
2023-04-18T04:31:32.120Z,2.60
2023-04-18T04:34:05.076Z,2.10
2023-04-18T04:36:37.387Z,3.60
2023-04-18T04:39:11.564Z,3.10
2023-04-18T04:42:03.989Z,2.30
2023-04-18T04:44:42.814Z,2.30
2023-04-18T04:47:15.060Z,2.00
2023-04-18T04:49:46.321Z,4.80
2023-04-18T04:52:17.722Z,3.40
2023-04-18T04:54:49.108Z,7.80
2023-04-18T04:57:22.095Z,5.40
2023-04-18T04:59:53.876Z,4.50
2023-04-18T05:02:27.664Z,5.20
2023-04-18T05:04:58.891Z,4.50
2023-04-18T05:07:30.246Z,3.40
2023-04-18T05:10:01.908Z,4.70
2023-04-18T05:12:33.498Z,3.60
2023-04-18T05:15:05.654Z,3.50
2023-04-18T05:17:37.232Z,4.10
2023-04-18T05:20:10.612Z,3.60
2023-04-18T05:22:42.543Z,3.40
2023-04-18T05:25:14.475Z,3.90
2023-04-18T05:27:46.780Z,3.50
2023-04-18T05:30:18.424Z,3.20
2023-04-18T05:32:50.552Z,3.50
2023-04-18T05:35:22.042Z,6.30
2023-04-18T05:37:53.499Z,4.00
2023-04-18T05:40:24.749Z,4.90
2023-04-18T05:42:56.524Z,4.00
2023-04-18T05:45:28.254Z,4.90
2023-04-18T05:47:59.900Z,4.50
2023-04-18T05:50:31.282Z,4.50
2023-04-18T05:53:02.838Z,7.20
2023-04-18T05:55:35.451Z,5.40
2023-04-18T05:58:07.069Z,4.20
2023-04-18T06:00:38.549Z,5.80
2023-04-18T06:03:11.325Z,4.10
2023-04-18T06:05:43.712Z,6.80
2023-04-18T06:08:15.769Z,4.40
2023-04-18T06:10:47.324Z,3.10
2023-04-18T06:13:18.757Z,3.40
2023-04-18T06:15:50.066Z,2.80
2023-04-18T06:18:22.100Z,4.80
2023-04-18T06:20:53.495Z,3.00
2023-04-18T06:23:25.055Z,3.10
2023-04-18T06:25:57.080Z,3.40
2023-04-18T06:28:28.984Z,2.70
2023-04-18T06:31:00.540Z,3.00
2023-04-18T06:33:32.279Z,2.90
2023-04-18T06:36:03.712Z,2.40
2023-04-18T06:38:35.559Z,5.60
2023-04-18T06:41:07.590Z,5.70
2023-04-18T06:43:39.970Z,8.00
2023-04-18T06:46:14.207Z,5.90
2023-04-18T06:48:45.948Z,5.10
2023-04-18T06:51:17.168Z,4.30
2023-04-18T06:53:48.704Z,5.20
2023-04-18T06:56:20.530Z,4.60
2023-04-18T06:58:53.220Z,4.50
2023-04-18T07:01:25.062Z,4.90
2023-04-18T07:03:56.792Z,7.70
2023-04-18T07:06:28.415Z,4.50
2023-04-18T07:09:01.432Z,5.90
2023-04-18T07:11:33.367Z,4.90
2023-04-18T07:14:04.759Z,4.10
2023-04-18T07:16:36.462Z,3.80
2023-04-18T07:19:08.503Z,4.50
2023-04-18T07:21:40.699Z,4.50
2023-04-18T07:24:13.216Z,4.50
2023-04-18T07:26:45.463Z,4.90
2023-04-18T07:29:17.232Z,5.00
2023-04-18T07:31:48.482Z,4.60
2023-04-18T07:34:19.876Z,4.00
2023-04-18T07:36:51.439Z,4.10
2023-04-18T07:39:22.997Z,3.80
2023-04-18T07:41:54.314Z,4.50
2023-04-18T07:44:25.518Z,5.10
2023-04-18T07:46:56.996Z,4.10
2023-04-18T07:49:29.342Z,4.70
2023-04-18T07:52:00.697Z,4.60
2023-04-18T07:54:32.420Z,4.10
2023-04-18T07:57:03.794Z,4.60
2023-04-18T07:59:35.290Z,4.60
2023-04-18T08:02:06.931Z,5.00
2023-04-18T08:04:38.737Z,4.70
2023-04-18T08:07:10.350Z,3.50
2023-04-18T08:09:41.495Z,4.10
2023-04-18T08:12:12.963Z,3.30
2023-04-18T08:14:44.479Z,3.30
2023-04-18T08:17:15.916Z,3.70
2023-04-18T08:19:47.534Z,4.50
2023-04-18T08:22:19.472Z,9.40
2023-04-18T08:27:29.010Z,5.00
2023-04-18T08:30:00.831Z,7.30
2023-04-18T08:32:32.667Z,8.70
2023-04-18T08:35:04.992Z,5.00
2023-04-18T08:37:36.504Z,9.00
2023-04-18T08:40:09.857Z,4.80
2023-04-18T08:42:44.440Z,8.70
2023-04-18T08:45:17.623Z,6.70
2023-04-18T08:47:49.668Z,4.80
2023-04-18T08:50:21.771Z,4.50
2023-04-18T08:52:56.286Z,4.50
2023-04-18T08:55:28.089Z,4.00
2023-04-18T08:57:59.834Z,7.20
2023-04-18T09:00:32.740Z,7.50
2023-04-18T09:03:04.446Z,7.90
2023-04-18T09:05:36.016Z,7.80
2023-04-18T09:08:25.442Z,5.90
2023-04-18T09:10:57.210Z,9.00
2023-04-18T09:13:46.355Z,5.60
2023-04-18T09:16:19.539Z,5.90
2023-04-18T09:19:15.106Z,10.30
2023-04-18T09:21:49.019Z,7.20
2023-04-18T09:24:30.057Z,7.30
2023-04-18T09:27:01.576Z,11.60
2023-04-18T09:29:47.550Z,8.70
2023-04-18T09:32:27.535Z,5.40
2023-04-18T09:35:03.922Z,13.90
2023-04-18T09:37:36.672Z,908.20
2023-04-18T09:40:20.029Z,918.30
2023-04-18T09:42:51.840Z,1323.10
2023-04-18T09:45:24.051Z,462.50
2023-04-18T09:47:56.171Z,180.90
2023-04-18T09:50:27.975Z,125.80
2023-04-18T09:53:01.038Z,149.10
2023-04-18T09:55:33.746Z,41.40
2023-04-18T09:58:08.814Z,138.20
2023-04-18T10:00:41.353Z,86.00
2023-04-18T10:03:16.286Z,88.20
2023-04-18T10:05:48.855Z,67.60
2023-04-18T10:08:20.197Z,56.10
2023-04-18T10:10:51.796Z,99.90
2023-04-18T10:13:23.985Z,22.60
2023-04-18T10:15:56.588Z,24.50
2023-04-18T10:18:28.009Z,7.80
2023-04-18T10:21:05.278Z,11.50
2023-04-18T10:23:40.847Z,9.60
2023-04-18T10:26:13.194Z,6.40
2023-04-18T10:28:57.020Z,8.80
2023-04-18T10:31:29.673Z,10.60
2023-04-18T10:34:05.516Z,7.60
2023-04-18T10:36:37.388Z,7.90
2023-04-18T10:39:25.848Z,7.10
2023-04-18T10:41:56.979Z,9.80
2023-04-18T10:44:28.454Z,4.40
2023-04-18T10:47:25.776Z,4.60
2023-04-18T10:50:01.700Z,6.40
2023-04-18T10:52:36.882Z,7.00
2023-04-18T10:55:18.632Z,5.40
2023-04-18T10:57:51.588Z,8.50
2023-04-18T11:00:26.161Z,4.70
2023-04-18T11:03:00.807Z,4.70
2023-04-18T11:05:32.894Z,4.00
2023-04-18T11:08:04.728Z,4.60
2023-04-18T11:10:35.897Z,4.50
2023-04-18T11:13:08.525Z,4.10
2023-04-18T11:15:40.047Z,6.70
2023-04-18T11:18:12.808Z,5.30
2023-04-18T11:20:50.624Z,3.80
2023-04-18T11:23:25.125Z,5.10
2023-04-18T11:25:58.311Z,4.00
2023-04-18T11:28:29.802Z,4.40
2023-04-18T11:31:02.907Z,9.10
2023-04-18T11:33:34.682Z,9.40
2023-04-18T11:36:06.881Z,6.50
2023-04-18T11:38:41.498Z,5.90
2023-04-18T11:41:17.133Z,7.90
2023-04-18T11:43:49.118Z,5.00
2023-04-18T11:46:20.827Z,5.00
2023-04-18T11:48:52.212Z,4.60
2023-04-18T11:51:38.804Z,4.10
2023-04-18T11:54:40.115Z,4.70
2023-04-18T11:57:23.949Z,5.50
2023-04-18T11:59:57.935Z,6.10
2023-04-18T12:02:42.227Z,6.00
2023-04-18T12:05:25.343Z,47.60
2023-04-18T12:07:57.223Z,31.10
2023-04-18T12:10:30.262Z,5.20
2023-04-18T12:13:02.614Z,5.40
2023-04-18T12:15:34.336Z,4.40
2023-04-18T12:18:08.858Z,4.90
2023-04-18T12:20:46.483Z,3.40
2023-04-18T12:23:33.063Z,6.00
2023-04-18T12:26:06.559Z,4.90
2023-04-18T12:28:38.736Z,4.30
2023-04-18T12:31:10.525Z,4.70
2023-04-18T12:33:41.578Z,4.90
2023-04-18T12:36:14.975Z,4.30
2023-04-18T12:38:47.157Z,5.10
2023-04-18T12:41:18.391Z,5.50
2023-04-18T12:43:49.645Z,4.30
2023-04-18T12:46:21.384Z,4.30
2023-04-18T12:48:53.065Z,4.80
2023-04-18T12:51:24.695Z,4.60
2023-04-18T12:53:56.796Z,3.90
2023-04-18T12:56:28.446Z,4.30
2023-04-18T12:58:59.896Z,4.80
2023-04-18T13:01:31.169Z,5.30
2023-04-18T13:04:11.658Z,3.80
2023-04-18T13:06:44.297Z,4.90
2023-04-18T13:09:16.779Z,5.80
2023-04-18T13:11:49.634Z,5.70
2023-04-18T13:14:21.519Z,4.60
2023-04-18T13:16:52.777Z,5.50
2023-04-18T13:19:24.671Z,6.50
2023-04-18T13:21:56.185Z,4.00
2023-04-18T13:24:28.040Z,4.20
2023-04-18T13:26:59.482Z,4.40
2023-04-18T13:29:31.224Z,4.30
2023-04-18T13:32:02.798Z,5.40
2023-04-18T13:34:34.721Z,5.30
2023-04-18T13:37:06.449Z,4.90
2023-04-18T13:39:38.518Z,5.10
2023-04-18T13:42:10.561Z,4.10
2023-04-18T13:44:42.194Z,3.90
2023-04-18T13:47:13.458Z,4.80
2023-04-18T13:49:44.952Z,3.80
2023-04-18T13:52:16.442Z,5.00
2023-04-18T13:54:48.431Z,4.40
2023-04-18T13:57:20.273Z,3.90
2023-04-18T13:59:52.148Z,6.10
2023-04-18T14:02:23.636Z,4.30
2023-04-18T14:04:55.451Z,4.60
2023-04-18T14:07:27.108Z,4.80
2023-04-18T14:09:58.784Z,6.00
2023-04-18T14:12:31.546Z,4.60
2023-04-18T14:15:03.621Z,9.00
2023-04-18T14:17:40.050Z,4.90
2023-04-18T14:20:12.556Z,6.20
2023-04-18T14:22:47.688Z,5.20
2023-04-18T14:25:19.539Z,4.50
2023-04-18T14:28:04.620Z,5.00
2023-04-18T14:30:36.684Z,5.90
2023-04-18T14:33:09.768Z,4.80
2023-04-18T14:35:42.133Z,4.80
2023-04-18T14:38:14.181Z,5.20
2023-04-18T14:40:45.793Z,6.40
2023-04-18T14:43:17.201Z,4.60
2023-04-18T14:45:48.572Z,5.50
2023-04-18T14:48:20.318Z,6.30
2023-04-18T14:50:59.328Z,5.50
2023-04-18T14:53:31.246Z,4.70
2023-04-18T14:56:03.314Z,4.00
2023-04-18T14:58:35.490Z,5.10
2023-04-18T15:01:08.179Z,7.40
2023-04-18T15:03:41.674Z,3.30
2023-04-18T15:06:13.775Z,4.70
2023-04-18T15:08:45.875Z,5.60
2023-04-18T15:11:17.540Z,4.30
2023-04-18T15:13:50.200Z,5.70
2023-04-18T15:16:21.611Z,5.00
2023-04-18T15:18:53.174Z,4.30
2023-04-18T15:21:25.687Z,5.40
2023-04-18T15:23:57.466Z,4.50
2023-04-18T15:26:30.465Z,6.10
2023-04-18T15:29:05.243Z,4.60
2023-04-18T15:31:38.977Z,4.70
2023-04-18T15:34:11.778Z,5.20
2023-04-18T15:36:43.821Z,5.50
2023-04-18T15:39:18.349Z,5.30
2023-04-18T15:41:52.808Z,5.20
2023-04-18T15:44:24.567Z,5.70
2023-04-18T15:46:56.101Z,5.60
2023-04-18T15:49:27.715Z,7.50
2023-04-18T15:51:59.282Z,5.60
2023-04-18T15:54:30.921Z,4.80
2023-04-18T15:57:02.767Z,5.00
2023-04-18T15:59:34.039Z,6.20
2023-04-18T16:02:06.829Z,7.00
2023-04-18T16:04:38.681Z,7.30
2023-04-18T16:07:10.621Z,4.80
2023-04-18T16:09:41.799Z,5.10
2023-04-18T16:12:13.750Z,5.40
2023-04-18T16:14:45.834Z,5.00
2023-04-18T16:17:17.517Z,5.00
2023-04-18T16:19:50.277Z,6.10
2023-04-18T16:22:21.413Z,5.80
2023-04-18T16:24:53.792Z,5.20
2023-04-18T16:27:25.790Z,5.20
2023-04-18T16:29:57.425Z,4.60
2023-04-18T16:32:28.694Z,4.80
2023-04-18T16:35:00.389Z,5.70
2023-04-18T16:37:31.675Z,5.10
2023-04-18T16:40:03.522Z,5.70
2023-04-18T16:42:35.338Z,4.60
2023-04-18T16:45:08.078Z,4.60
2023-04-18T16:47:39.852Z,3.90
2023-04-18T16:50:12.950Z,4.90
2023-04-18T16:52:44.928Z,4.70
2023-04-18T16:55:16.683Z,5.70
2023-04-18T16:57:48.210Z,5.20
2023-04-18T17:00:20.464Z,5.30
2023-04-18T17:02:52.012Z,5.30
2023-04-18T17:05:23.941Z,4.90
2023-04-18T17:07:56.223Z,5.50
2023-04-18T17:10:28.246Z,5.60
2023-04-18T17:13:00.987Z,4.90
2023-04-18T17:15:32.836Z,6.90
2023-04-18T17:18:04.604Z,5.10
2023-04-18T17:20:36.490Z,4.40
2023-04-18T17:23:07.822Z,4.40
2023-04-18T17:25:39.013Z,4.60
2023-04-18T17:28:11.998Z,4.90
2023-04-18T17:30:44.325Z,6.50
2023-04-18T17:33:15.784Z,5.70
2023-04-18T17:35:48.230Z,4.40
2023-04-18T17:38:19.870Z,4.60
2023-04-18T17:40:58.641Z,5.00
2023-04-18T17:43:30.365Z,4.40
2023-04-18T17:46:03.943Z,3.70
2023-04-18T17:48:35.469Z,4.70
2023-04-18T17:51:07.227Z,5.10
2023-04-18T17:53:38.812Z,5.70
2023-04-18T17:56:11.093Z,5.10
2023-04-18T17:58:42.900Z,5.40
2023-04-18T18:01:19.045Z,5.70
2023-04-18T18:03:53.981Z,5.60
2023-04-18T18:06:27.989Z,6.70
2023-04-18T18:08:59.601Z,7.50
2023-04-18T18:11:31.304Z,8.60
2023-04-18T18:14:02.663Z,9.00
2023-04-18T18:16:34.118Z,8.90
2023-04-18T18:19:07.607Z,8.90
2023-04-18T18:21:39.138Z,7.10
2023-04-18T18:24:11.438Z,6.00
2023-04-18T18:26:43.234Z,6.00
2023-04-18T18:29:15.341Z,6.00
2023-04-18T18:31:47.040Z,5.70
2023-04-18T18:34:20.127Z,6.00
2023-04-18T18:36:51.751Z,5.20
2023-04-18T18:39:23.322Z,5.20
2023-04-18T18:41:54.592Z,5.90
2023-04-18T18:44:26.590Z,5.60
2023-04-18T18:47:00.113Z,6.00
2023-04-18T18:49:31.723Z,5.60
2023-04-18T18:52:05.019Z,6.10
2023-04-18T18:54:37.077Z,5.70
2023-04-18T18:57:09.220Z,5.60
2023-04-18T18:59:41.628Z,5.30
2023-04-18T19:02:13.256Z,5.60
2023-04-18T19:04:45.185Z,5.20
2023-04-18T19:07:16.856Z,6.70
2023-04-18T19:09:48.321Z,5.70
2023-04-18T19:12:20.204Z,5.60
2023-04-18T19:14:52.509Z,4.90
2023-04-18T19:17:24.911Z,5.90
2023-04-18T19:19:58.226Z,5.90
2023-04-18T19:22:29.602Z,5.70
2023-04-18T19:25:01.329Z,6.20
2023-04-18T19:27:32.657Z,6.50
2023-04-18T19:30:03.906Z,5.40
2023-04-18T19:32:36.272Z,6.00
2023-04-18T19:35:09.957Z,6.20
2023-04-18T19:37:41.696Z,5.50
2023-04-18T19:40:14.418Z,6.00
2023-04-18T19:42:46.209Z,5.60
2023-04-18T19:45:17.962Z,6.20
2023-04-18T19:47:49.271Z,7.20
2023-04-18T19:50:20.841Z,6.60
2023-04-18T19:52:52.381Z,7.30
2023-04-18T19:55:24.482Z,7.40
2023-04-18T19:57:57.125Z,8.50
2023-04-18T20:00:29.489Z,5.80
2023-04-18T20:03:01.003Z,7.10
2023-04-18T20:05:32.415Z,7.60
2023-04-18T20:08:04.709Z,7.50
2023-04-18T20:10:37.552Z,6.80
2023-04-18T20:13:09.283Z,7.20
2023-04-18T20:15:41.068Z,7.40
2023-04-18T20:18:12.840Z,7.50
2023-04-18T20:20:44.426Z,7.70
2023-04-18T20:23:15.783Z,8.40
2023-04-18T20:25:47.164Z,8.70
2023-04-18T20:28:19.067Z,7.40
2023-04-18T20:30:50.632Z,7.40
2023-04-18T20:33:22.732Z,7.90
2023-04-18T20:35:55.017Z,7.00
2023-04-18T20:38:29.968Z,7.80
2023-04-18T20:41:01.237Z,6.90
2023-04-18T20:43:36.894Z,7.10
2023-04-18T20:46:08.546Z,7.60
2023-04-18T20:48:40.135Z,7.60
2023-04-18T20:51:11.781Z,6.40
2023-04-18T20:53:43.312Z,8.70
2023-04-18T20:56:14.744Z,7.50
2023-04-18T20:58:46.445Z,5.90
2023-04-18T21:01:18.515Z,5.40
2023-04-18T21:03:50.601Z,5.60
2023-04-18T21:06:22.405Z,4.80
2023-04-18T21:08:54.379Z,5.80
2023-04-18T21:11:26.228Z,6.00
2023-04-18T21:13:57.738Z,6.20
2023-04-18T21:16:29.675Z,5.90
2023-04-18T21:19:01.568Z,6.10
2023-04-18T21:21:34.585Z,6.50
2023-04-18T21:24:06.899Z,6.00
2023-04-18T21:26:38.712Z,6.20
2023-04-18T21:29:10.275Z,6.30
2023-04-18T21:31:41.801Z,6.10
2023-04-18T21:34:13.785Z,6.40
2023-04-18T21:36:44.987Z,5.40
2023-04-18T21:39:16.782Z,8.20
2023-04-18T21:41:48.350Z,6.40
2023-04-18T21:44:19.905Z,5.60
2023-04-18T21:46:51.248Z,6.10
2023-04-18T21:49:22.943Z,5.40
2023-04-18T21:51:55.206Z,4.70
2023-04-18T21:54:26.836Z,5.50
2023-04-18T21:56:58.505Z,4.90
2023-04-18T21:59:30.152Z,5.30
2023-04-18T22:02:01.621Z,5.00
2023-04-18T22:04:34.325Z,4.00
2023-04-18T22:07:06.641Z,4.10
2023-04-18T22:09:39.058Z,5.10
2023-04-18T22:12:11.693Z,4.70
2023-04-18T22:14:48.547Z,6.30
2023-04-18T22:17:21.159Z,5.90
2023-04-18T22:19:53.783Z,4.90
2023-04-18T22:22:25.180Z,4.80
2023-04-18T22:24:56.551Z,6.70
2023-04-18T22:27:28.278Z,5.40
2023-04-18T22:30:00.027Z,7.60
2023-04-18T22:32:31.049Z,5.40
2023-04-18T22:35:03.249Z,6.00
2023-04-18T22:37:34.833Z,4.60
2023-04-18T22:40:07.817Z,6.10
2023-04-18T22:42:39.035Z,5.30
2023-04-18T22:45:12.442Z,6.20
2023-04-18T22:47:44.116Z,5.70
2023-04-18T22:50:16.475Z,5.70
2023-04-18T22:52:48.060Z,5.60
2023-04-18T22:55:20.418Z,5.30
2023-04-18T22:57:51.652Z,6.60
2023-04-18T23:00:23.753Z,5.80
2023-04-18T23:02:55.163Z,4.90
2023-04-18T23:05:27.413Z,5.80
2023-04-18T23:08:00.366Z,4.60
2023-04-18T23:10:32.478Z,5.10
2023-04-18T23:13:03.953Z,5.30
2023-04-18T23:15:35.841Z,5.50
2023-04-18T23:18:07.714Z,5.40
2023-04-18T23:20:39.114Z,4.20
2023-04-18T23:23:10.592Z,4.00
2023-04-18T23:25:42.239Z,4.00
2023-04-18T23:28:13.914Z,4.10
2023-04-18T23:30:45.755Z,4.10
2023-04-18T23:33:17.860Z,3.20
2023-04-18T23:35:49.082Z,4.10
2023-04-18T23:38:20.403Z,5.20
2023-04-18T23:40:52.064Z,5.80
2023-04-18T23:43:23.665Z,4.70
2023-04-18T23:45:55.217Z,4.70
2023-04-18T23:48:27.312Z,4.50
2023-04-18T23:50:58.602Z,3.70
2023-04-18T23:53:30.074Z,3.10
2023-04-18T23:56:01.282Z,4.00
2023-04-18T23:58:33.765Z,3.80
